Time;durP1;ratioP1;P1;durP2;ratioP2;P2;SDS_P1;SDS_P2;PMS_P1;PMS_P2;Temp;Humidity;BMP_temperature;BMP_pressure;BME280_temperature;BME280_humidity;BME280_pressure;Samples;Min_cycle;Max_cycle;Signal;HPM_P1;HPM_P2
2022/12/11 00:00:27;;;;;;;2.95;1.08;;;;;;;18.00;63.05;96853.47;2087494;28;20051;-73
2022/12/11 00:01:28;;;;;;;;;;;;;;;17.90;63.32;96855.16;2075808;28;20048;-72
2022/12/11 00:02:29;;;;;;;1.45;1.10;;;;;;;17.93;63.22;96855.47;2076019;28;19928;-72
2022/12/11 00:03:31;;;;;;;;;;;;;;;17.84;63.38;96854.25;2079915;28;20102;-73
2022/12/11 00:04:32;;;;;;;2.08;1.67;;;;;;;17.92;63.15;96848.50;2079485;28;19943;-72
2022/12/11 00:05:35;;;;;;;;;;;;;;;17.82;63.43;96851.00;2076584;28;20166;-73
2022/12/11 00:06:35;;;;;;;2.15;1.60;;;;;;;17.86;63.29;96855.66;2079870;28;20534;-72
2022/12/11 00:07:37;;;;;;;;;;;;;;;17.80;63.46;96850.41;2081382;28;20047;-72
2022/12/11 00:08:38;;;;;;;;;;;;;;;17.73;63.67;96853.22;2076847;28;19924;-73
2022/12/11 00:09:40;;;;;;;2.53;1.20;;;;;;;17.80;63.52;96853.94;2080748;28;22047;-73
2022/12/11 00:10:46;;;;;;;2.88;1.70;;;;;;;17.88;63.08;96855.38;2079773;28;20052;-73
2022/12/11 00:11:48;;;;;;;1.70;1.27;;;;;;;17.91;63.13;96851.41;2075777;28;21124;-72
2022/12/11 00:12:49;;;;;;;2.22;1.42;;;;;;;17.94;62.87;96850.91;2081744;28;20053;-72
2022/12/11 00:13:51;;;;;;;;;;;;;;;17.84;63.34;96854.25;2086843;28;20060;-72
2022/12/11 00:14:51;;;;;;;;;;;;;;;17.75;63.71;96851.13;2085704;28;20315;-72
2022/12/11 00:15:53;;;;;;;3.50;2.10;;;;;;;17.82;63.54;96856.34;2083895;28;19978;-72
2022/12/11 00:16:54;;;;;;;1.90;1.55;;;;;;;17.88;63.11;96855.38;2081804;28;20048;-72
2022/12/11 00:17:56;;;;;;;;;;;;;;;17.67;63.43;96842.66;2081097;28;20044;-73
2022/12/11 00:18:56;;;;;;;;;;;;;;;17.69;63.66;96854.78;2084802;28;20266;-72
2022/12/11 00:19:58;;;;;;;2.63;1.50;;;;;;;17.75;63.56;96859.19;2083410;28;19928;-73
2022/12/11 00:21:01;;;;;;;2.55;1.15;;;;;;;17.83;63.35;96858.81;2084964;28;20497;-73
2022/12/11 00:22:02;;;;;;;1.83;1.27;;;;;;;17.88;63.24;96863.44;2082877;28;20094;-73
2022/12/11 00:23:04;;;;;;;1.52;1.35;;;;;;;17.90;62.96;96864.00;2084257;28;20056;-72
2022/12/11 00:24:06;;;;;;;2.08;1.52;;;;;;;17.90;62.95;96864.00;2083827;28;20075;-72
2022/12/11 00:25:08;;;;;;;2.63;1.30;;;;;;;17.91;62.88;96862.94;2083253;28;20055;-73
2022/12/11 00:26:13;;;;;;;2.33;1.60;;;;;;;17.90;63.16;96860.53;2087916;28;20644;-73
2022/12/11 00:27:13;;;;;;;1.25;1.13;;;;;;;17.90;62.96;96858.66;2090230;28;20101;-72
2022/12/11 00:28:16;;;;;;;;;;;;;;;17.76;63.42;96858.09;2076842;28;20476;-72
2022/12/11 00:29:17;;;;;;;1.60;1.30;;;;;;;17.81;63.42;96860.91;2082368;28;19931;-72
2022/12/11 00:30:19;;;;;;;;;;;;;;;17.71;63.44;96862.56;2089040;28;20045;-73
2022/12/11 00:31:20;;;;;;;1.73;1.50;;;;;;;17.77;63.55;96861.59;2088721;28;19920;-72
2022/12/11 00:32:22;;;;;;;2.10;1.63;;;;;;;17.79;63.33;96856.84;2089033;28;20053;-72
2022/12/11 00:33:25;;;;;;;1.80;1.20;;;;;;;17.83;63.12;96858.00;2089503;28;20108;-73
2022/12/11 00:34:27;;;;;;;1.85;1.20;;;;;;;17.86;63.10;96857.53;2081924;28;20040;-72
2022/12/11 00:35:28;;;;;;;2.38;1.60;;;;;;;17.87;62.86;96853.78;2077760;28;20056;-72
2022/12/11 00:36:31;;;;;;;;;;;;;;;17.76;63.13;96859.97;2085887;28;20056;-72
2022/12/11 00:37:32;;;;;;;1.30;1.20;;;;;;;17.78;63.45;96855.19;2086748;28;19924;-72
2022/12/11 00:38:33;;;;;;;;;;;;;;;17.67;63.64;96850.72;2080661;28;20048;-72
2022/12/11 00:39:36;;;;;;;2.42;1.48;;;;;;;17.69;63.64;96853.94;2083524;28;19928;-72
2022/12/11 00:40:37;;;;;;;1.50;1.40;;;;;;;17.77;63.42;96864.28;2084295;28;20608;-72
2022/12/11 00:41:39;;;;;;;;;;;;;;;17.71;63.31;96862.56;2086853;28;20059;-72
2022/12/11 00:42:39;;;;;;;2.35;1.67;;;;;;;17.72;63.51;96861.50;2080598;28;19920;-72
2022/12/11 00:43:41;;;;;;;;;;;;;;;17.62;63.73;96862.13;2088972;28;20122;-72
2022/12/11 00:44:42;;;;;;;2.78;1.25;;;;;;;17.69;63.42;96861.97;2089371;28;19974;-73
2022/12/11 00:45:44;;;;;;;;;;;;;;;17.60;63.68;96861.56;2088673;28;20384;-73
2022/12/11 00:46:45;;;;;;;2.72;1.55;;;;;;;17.70;63.66;96866.31;2095217;28;19919;-72
2022/12/11 00:47:47;;;;;;;;;;;;;;;17.64;63.67;96852.00;2097586;28;20056;-72
2022/12/11 00:48:48;;;;;;;;;;;;;;;17.58;63.79;96856.47;2088383;28;20602;-73
2022/12/11 00:49:51;;;;;;;1.83;1.30;;;;;;;17.67;63.51;96856.06;2079909;28;19924;-72
2022/12/11 00:50:51;;;;;;;1.65;1.20;;;;;;;17.72;63.45;96856.97;2081948;28;20044;-72
2022/12/11 00:51:54;;;;;;;;;;;;;;;17.63;63.51;96856.56;2080880;28;20048;-72
2022/12/11 00:52:55;;;;;;;2.45;1.52;;;;;;;17.70;63.53;96860.94;2083671;28;19974;-72
2022/12/11 00:53:57;;;;;;;;;;;;;;;17.64;63.63;96857.38;2088093;28;20052;-72
2022/12/11 00:54:57;;;;;;;1.80;1.17;;;;;;;17.68;63.45;96866.53;2078542;28;20018;-73
2022/12/11 00:55:59;;;;;;;;;;;;;;;17.60;63.68;96857.00;2088019;28;20052;-72
2022/12/11 00:56:59;;;;;;;1.27;1.08;;;;;;;17.65;63.69;96862.47;2088011;28;20467;-72
2022/12/11 00:58:01;;;;;;;2.05;1.23;;;;;;;17.70;63.39;96866.31;2089074;28;20118;-72
2022/12/11 00:59:02;;;;;;;3.42;2.03;;;;;;;17.75;63.31;96871.78;2089836;28;20053;-72
2022/12/11 01:00:05;;;;;;;;;;;;;;;17.66;63.42;96874.00;2087610;28;20463;-72
2022/12/11 01:01:08;;;;;;;1.30;1.10;;;;;;;17.71;63.43;96870.59;2090731;28;19985;-73
2022/12/11 01:02:10;;;;;;;2.22;1.73;;;;;;;17.71;63.40;96870.59;2089482;28;20067;-72
2022/12/11 01:03:12;;;;;;;2.70;1.70;;;;;;;17.72;63.24;96867.69;2090948;28;20052;-73
2022/12/11 01:04:14;;;;;;;2.20;1.83;;;;;;;17.76;63.13;96876.88;2090454;28;20056;-72
2022/12/11 01:05:15;;;;;;;1.55;1.45;;;;;;;17.76;63.07;96879.56;2091214;28;20070;-72
2022/12/11 01:06:19;;;;;;;1.88;1.35;;;;;;;17.75;63.07;96875.25;2082243;28;20044;-72
2022/12/11 01:07:21;;;;;;;1.35;1.25;;;;;;;17.77;63.20;96869.63;2084801;28;20049;-72
2022/12/11 01:08:23;;;;;;;3.00;1.20;;;;;;;17.78;63.26;96877.50;2088564;28;20049;-72
2022/12/11 01:10:43;;;;;;;1.45;1.33;;;;;;;17.76;63.16;96873.38;2089407;28;20052;-73
2022/12/11 01:11:44;;;;;;;;;;;;;;;17.61;63.64;96877.41;2088039;28;20520;-72
2022/12/11 01:12:45;;;;;;;2.05;1.20;;;;;;;17.65;63.54;96870.50;2078908;28;19939;-72
2022/12/11 01:13:47;;;;;;;;;;;;;;;17.56;63.55;96871.16;2085566;28;20443;-72
2022/12/11 01:14:47;;;;;;;;;;;;;;;17.51;63.85;96882.56;2080012;28;20055;-72
2022/12/11 01:15:49;;;;;;;1.33;1.13;;;;;;;17.57;63.87;96878.13;2083052;28;19924;-72
2022/12/11 01:16:50;;;;;;;1.42;1.30;;;;;;;17.63;63.45;96877.16;2087814;28;20063;-72
2022/12/11 01:17:52;;;;;;;;;;;;;;;17.57;63.55;96870.91;2083179;28;20486;-73
2022/12/11 01:18:52;;;;;;;2.33;1.42;;;;;;;17.62;63.63;96867.50;2087776;28;20510;-72
2022/12/11 01:19:54;;;;;;;;;;;;;;;17.56;63.38;96863.91;2081447;28;20067;-72
2022/12/11 01:20:55;;;;;;;1.60;1.00;;;;;;;17.61;63.74;96874.75;2083073;28;19924;-72
2022/12/11 01:21:57;;;;;;;;;;;;;;;17.54;63.71;96871.38;2086734;28;20044;-73
2022/12/11 01:22:59;;;;;;;3.83;1.85;;;;;;;17.59;63.56;96874.16;2085647;28;19924;-72
2022/12/11 01:24:01;;;;;;;1.88;1.38;;;;;;;17.65;63.50;96877.75;2086686;28;20136;-72
2022/12/11 01:25:02;;;;;;;1.40;1.25;;;;;;;17.66;63.39;96876.69;2079860;28;20474;-72
2022/12/11 01:26:06;;;;;;;1.80;1.50;;;;;;;17.68;63.18;96874.59;2084568;28;20049;-73
2022/12/11 01:27:07;;;;;;;1.92;1.58;;;;;;;17.70;63.22;96874.34;2087311;28;20056;-72
2022/12/11 01:28:09;;;;;;;;;;;;;;;17.56;63.38;96866.59;2089812;28;20053;-73
2022/12/11 01:29:10;;;;;;;2.33;1.50;;;;;;;17.59;63.49;96866.13;2079514;28;19963;-72
2022/12/11 01:30:13;;;;;;;;;;;;;;;17.52;63.65;96872.66;2074928;28;20049;-72
2022/12/11 01:31:16;;;;;;;2.38;1.55;;;;;;;17.57;63.46;96854.00;2083215;28;20016;-72
2022/12/11 01:32:17;;;;;;;1.90;1.60;;;;;;;17.60;63.50;96854.31;2085811;28;20097;-72
2022/12/11 01:33:18;;;;;;;;;;;;;;;17.51;63.80;96861.13;2080594;28;20048;-72
2022/12/11 01:34:19;;;;;;;2.22;1.40;;;;;;;17.55;63.84;96856.94;2079893;28;20404;-72
2022/12/11 01:35:21;;;;;;;;;;;;;;;17.46;63.59;96858.34;2077780;28;20050;-72
2022/12/11 01:36:22;;;;;;;;;;;;;;;17.42;63.97;96865.25;2084662;28;20725;-72
2022/12/11 01:37:23;;;;;;;1.95;1.13;;;;;;;17.50;63.67;96866.75;2085646;28;19959;-72
2022/12/11 01:38:25;;;;;;;2.03;1.83;;;;;;;17.56;63.73;96869.28;2087450;28;20053;-73
2022/12/11 01:39:27;;;;;;;1.45;1.30;;;;;;;17.59;63.33;96879.53;2080802;28;20102;-72
2022/12/11 01:40:29;;;;;;;2.00;1.25;;;;;;;17.62;63.22;96870.19;2088901;28;20819;-72
2022/12/11 01:41:30;;;;;;;1.80;1.10;;;;;;;17.63;63.32;96869.97;2088145;28;20117;-72
2022/12/11 01:42:32;;;;;;;2.28;1.50;;;;;;;17.64;63.12;96868.91;2084408;28;20437;-73
2022/12/11 01:43:33;;;;;;;;;;;;;;;17.54;63.50;96868.69;2084445;28;20044;-73
2022/12/11 01:45:16;;;;;;;2.55;1.33;;;;;;;17.52;63.44;96861.94;2085101;28;20397;-72
2022/12/11 01:46:18;;;;;;;2.97;1.60;;;;;;;17.54;63.46;96862.53;2060825;28;20059;-72
2022/12/11 01:47:19;;;;;;;1.00;0.90;;;;;;;17.58;63.44;96863.69;2083639;28;20979;-72
2022/12/11 01:48:21;;;;;;;;;;;;;;;17.49;63.47;96860.56;2081012;28;20057;-72
2022/12/11 01:49:25;;;;;;;1.70;1.13;;;;;;;17.54;63.58;96865.22;2082454;28;19924;-73
2022/12/11 01:50:28;;;;;;;1.13;1.02;;;;;;;17.58;63.35;96863.69;2079083;28;20063;-72
2022/12/11 01:51:33;;;;;;;1.80;1.20;;;;;;;17.58;63.40;96867.19;2082965;28;20052;-72
2022/12/11 01:52:34;;;;;;;1.30;1.20;;;;;;;17.60;63.29;96866.94;2070933;28;21493;-72
2022/12/11 01:53:39;;;;;;;;;;;;;;;17.50;63.34;96874.78;2080613;28;20444;-73
2022/12/11 01:54:40;;;;;;;1.70;1.38;;;;;;;17.54;63.56;96871.38;2077850;28;19995;-72
2022/12/11 01:55:45;;;;;;;2.08;1.80;;;;;;;17.57;63.37;96864.72;2080353;28;20048;-72
2022/12/11 01:56:49;;;;;;;1.77;1.38;;;;;;;17.59;63.14;96873.34;2079623;28;20658;-72
2022/12/11 01:57:52;;;;;;;1.30;1.20;;;;;;;17.58;63.24;96871.72;2083535;28;20052;-72
2022/12/11 01:58:56;;;;;;;2.42;1.42;;;;;;;17.58;63.16;96869.84;2089123;28;21034;-72
2022/12/11 01:59:57;;;;;;;2.55;1.98;;;;;;;17.58;63.23;96872.53;2085792;28;20048;-73
2022/12/11 02:00:59;;;;;;;;;;;;;;;17.45;63.36;96870.13;2085731;28;20628;-72
2022/12/11 02:02:05;;;;;;;1.40;1.27;;;;;;;17.51;63.52;96868.38;2086847;28;19924;-72
2022/12/11 02:03:08;;;;;;;2.42;1.65;;;;;;;17.56;63.20;96863.91;2087402;28;20509;-72
2022/12/11 02:04:10;;;;;;;2.15;1.17;;;;;;;17.56;63.40;96869.28;2074288;28;22421;-72
2022/12/11 02:05:12;;;;;;;2.88;1.50;;;;;;;17.56;63.13;96869.28;2076358;28;20055;-72
2022/12/11 02:06:31;;;;;;;4.30;1.17;;;;;;;17.55;63.42;96872.19;2079709;28;20051;-72
2022/12/11 02:07:39;;;;;;;1.42;1.17;;;;;;;17.58;63.14;96869.84;2078540;28;20070;-72
2022/12/11 02:08:41;;;;;;;2.13;1.17;;;;;;;17.59;63.14;96884.88;2080210;28;20044;-72
2022/12/11 02:09:46;;;;;;;1.45;1.30;;;;;;;17.58;63.46;96871.72;2074811;28;20057;-72
2022/12/11 02:11:00;;;;;;;1.45;1.27;;;;;;;17.59;63.21;96879.53;2078612;28;20051;-72
2022/12/11 02:12:11;;;;;;;2.38;1.42;;;;;;;17.57;63.18;96870.91;2077938;28;20516;-72
2022/12/11 02:13:17;;;;;;;2.05;1.52;;;;;;;17.53;63.28;96867.09;2083737;28;20101;-72
2022/12/11 02:14:27;;;;;;;1.60;1.50;;;;;;;17.54;63.26;96870.56;2076106;28;20063;-74
2022/12/11 02:15:34;;;;;;;1.48;1.15;;;;;;;17.55;63.21;96872.19;2081648;28;20528;-72
2022/12/11 02:16:44;;;;;;;1.98;1.10;;;;;;;17.54;63.17;96871.38;2078727;28;20079;-72
2022/12/11 02:17:52;;;;;;;1.70;1.15;;;;;;;17.54;63.29;96873.25;2080732;28;20488;-73
2022/12/11 02:19:01;;;;;;;1.25;0.90;;;;;;;17.52;63.08;96867.31;2079017;28;20130;-72
2022/12/11 02:20:08;;;;;;;2.15;1.05;;;;;;;17.55;63.16;96877.53;2083496;28;20045;-72
2022/12/11 02:21:15;;;;;;;1.80;1.33;;;;;;;17.52;63.19;96868.13;2080658;28;20413;-72
2022/12/11 02:22:27;;;;;;;2.03;1.65;;;;;;;17.53;63.30;96867.09;2084022;28;20058;-72
2022/12/11 02:24:04;;;;;;;1.63;1.08;;;;;;;17.50;63.28;96875.59;2080860;28;20056;-72
2022/12/11 02:25:15;;;;;;;1.52;0.93;;;;;;;17.49;63.45;96878.50;2081995;28;20056;-72
2022/12/11 02:26:38;;;;;;;1.48;1.10;;;;;;;17.47;63.31;96877.91;2084769;28;20044;-72
2022/12/11 02:27:44;;;;;;;2.58;1.10;;;;;;;17.51;63.29;96882.56;2082490;28;20048;-73
2022/12/11 02:28:51;;;;;;;1.38;1.05;;;;;;;17.49;63.27;96868.59;2078097;28;20072;-72
2022/12/11 02:29:58;;;;;;;1.75;1.20;;;;;;;17.50;63.29;96869.44;2075319;28;20426;-72
2022/12/11 02:31:05;;;;;;;1.77;1.27;;;;;;;17.50;63.16;96880.97;2079706;28;20674;-71
2022/12/11 02:32:13;;;;;;;1.40;1.20;;;;;;;17.50;63.11;96880.16;2082373;28;20128;-72
2022/12/11 02:33:16;;;;;;;1.58;1.20;;;;;;;17.51;63.09;96885.25;2079906;28;20048;-72
2022/12/11 02:34:21;;;;;;;1.30;1.20;;;;;;;17.50;63.10;96878.28;2079310;28;20504;-73
2022/12/11 02:35:28;;;;;;;1.98;1.27;;;;;;;17.51;63.19;96889.81;2080465;28;20048;-72
2022/12/11 02:36:34;;;;;;;2.28;1.27;;;;;;;17.51;63.20;96882.56;2085250;28;20101;-72
2022/12/11 02:37:39;;;;;;;1.27;1.00;;;;;;;17.51;63.32;96879.09;2078139;28;20614;-72
2022/12/11 02:38:42;;;;;;;2.50;1.30;;;;;;;17.51;63.07;96881.78;2085031;28;20129;-72
2022/12/11 02:39:47;;;;;;;2.35;1.52;;;;;;;17.50;63.16;96886.31;2082435;28;20131;-72
2022/12/11 02:40:50;;;;;;;1.77;1.58;;;;;;;17.50;63.07;96883.66;2081154;28;20063;-73
2022/12/11 02:41:55;;;;;;;2.20;1.20;;;;;;;17.48;63.19;96874.22;2085987;28;20080;-72
2022/12/11 02:43:00;;;;;;;1.20;0.90;;;;;;;17.51;63.10;96879.09;2089442;28;20074;-72
2022/12/11 02:44:04;;;;;;;1.95;1.70;;;;;;;17.50;63.13;96880.97;2088773;28;20105;-72
2022/12/11 02:45:08;;;;;;;1.63;1.35;;;;;;;17.49;63.08;96886.56;2082177;28;20143;-72
2022/12/11 02:46:09;;;;;;;1.55;1.20;;;;;;;17.49;62.91;96882.00;2085642;28;21489;-72
2022/12/11 02:47:13;;;;;;;1.75;1.20;;;;;;;17.50;63.05;96878.28;2082609;28;20056;-72
2022/12/11 02:48:17;;;;;;;1.23;1.10;;;;;;;17.48;63.19;96875.03;2073244;28;20117;-72
2022/12/11 02:49:20;;;;;;;1.38;1.27;;;;;;;17.46;63.31;96874.44;2082230;28;20106;-72
2022/12/11 02:50:22;;;;;;;2.10;1.48;;;;;;;17.46;63.35;96869.06;2076878;28;20057;-73
2022/12/11 02:51:28;;;;;;;1.35;1.02;;;;;;;17.47;63.09;96875.25;2071876;28;20077;-72
2022/12/11 02:52:31;;;;;;;1.63;1.52;;;;;;;17.49;63.23;96873.16;2077318;28;20110;-72
2022/12/11 02:53:37;;;;;;;3.63;1.83;;;;;;;17.47;63.13;96873.41;2074121;28;20063;-72
2022/12/11 02:54:40;;;;;;;1.30;1.10;;;;;;;17.47;63.14;96876.09;2082833;28;20064;-72
2022/12/11 02:55:44;;;;;;;2.10;1.23;;;;;;;17.47;63.09;96865.38;2076216;28;20885;-73
2022/12/11 02:56:51;;;;;;;1.63;1.52;;;;;;;17.45;63.16;96869.34;2079777;28;20493;-72
2022/12/11 02:57:59;;;;;;;1.77;1.30;;;;;;;17.45;63.27;96872.81;2077907;28;20056;-72
2022/12/11 02:59:08;;;;;;;1.63;1.05;;;;;;;17.43;63.05;96872.22;2081045;28;20049;-72
2022/12/11 03:00:11;;;;;;;2.30;1.58;;;;;;;17.42;63.21;96874.09;2078390;28;20404;-72
2022/12/11 03:01:12;;;;;;;2.17;1.45;;;;;;;17.43;63.25;96881.09;2082895;28;20044;-73
2022/12/11 03:02:14;;;;;;;;;;;;;;;17.34;63.60;96884.41;2084883;28;20051;-72
2022/12/11 03:03:15;;;;;;;1.35;1.25;;;;;;;17.35;63.38;96881.47;2081174;28;19920;-72
2022/12/11 03:04:17;;;;;;;;;;;;;;;17.27;63.60;96878.34;2080161;28;20087;-72
2022/12/11 03:05:19;;;;;;;;;;;;;;;17.21;63.87;96885.47;2081178;28;19977;-72
2022/12/11 03:06:23;;;;;;;1.27;1.17;;;;;;;17.29;63.66;96885.09;2080420;28;19947;-72
2022/12/11 03:07:28;;;;;;;1.05;0.93;;;;;;;17.34;63.49;96892.44;2083294;28;20057;-72
2022/12/11 03:08:29;;;;;;;2.22;1.15;;;;;;;17.37;63.48;96886.59;2081933;28;20052;-72
2022/12/11 03:09:30;;;;;;;;;;;;;;;17.28;63.69;96898.75;2072630;28;20051;-72
2022/12/11 03:10:32;;;;;;;1.52;1.15;;;;;;;17.31;63.72;96888.34;2080278;28;19928;-72
2022/12/11 03:11:34;;;;;;;1.60;1.00;;;;;;;17.36;63.48;96893.00;2081942;28;20048;-72
2022/12/11 03:12:38;;;;;;;1.40;1.10;;;;;;;17.39;63.45;96895.22;2085367;28;20056;-72
2022/12/11 03:13:42;;;;;;;1.77;1.35;;;;;;;17.38;63.14;96889.06;2088611;28;20131;-72
2022/12/11 03:14:44;;;;;;;1.13;1.02;;;;;;;17.39;63.26;96887.19;2089255;28;20052;-72
2022/12/11 03:15:58;;;;;;;1.67;1.20;;;;;;;17.40;63.15;96875.41;2088860;28;20555;-72
2022/12/11 03:17:06;;;;;;;1.40;1.23;;;;;;;17.37;63.21;96870.50;2076756;28;20094;-72
2022/12/11 03:18:15;;;;;;;0.70;0.70;;;;;;;17.37;63.27;96871.31;2078460;28;20053;-73
2022/12/11 03:19:26;;;;;;;1.63;1.23;;;;;;;17.35;63.29;96862.69;2083258;28;20048;-73
2022/12/11 03:20:36;;;;;;;0.82;0.82;;;;;;;17.36;63.31;96858.19;2088044;28;20066;-72
2022/12/11 03:21:43;;;;;;;1.52;1.00;;;;;;;17.38;63.22;96861.41;2086834;28;20052;-72
2022/12/11 03:22:51;;;;;;;2.75;1.20;;;;;;;17.34;63.42;96861.09;2077191;28;20060;-72
2022/12/11 03:24:01;;;;;;;2.65;1.58;;;;;;;17.36;63.12;96864.34;2088240;28;20659;-73
2022/12/11 03:25:06;;;;;;;1.65;1.20;;;;;;;17.36;63.22;96866.22;2088358;28;20484;-72
2022/12/11 03:26:11;;;;;;;1.77;1.20;;;;;;;17.38;63.08;96861.41;2084903;28;20628;-73
2022/12/11 03:27:17;;;;;;;1.48;1.20;;;;;;;17.40;63.12;96854.75;2088019;28;20127;-72
2022/12/11 03:28:22;;;;;;;1.52;1.42;;;;;;;17.37;63.18;96857.94;2088176;28;20619;-73
2022/12/11 03:29:30;;;;;;;1.50;1.10;;;;;;;17.36;63.04;96864.34;2087238;28;20056;-73
2022/12/11 03:30:35;;;;;;;1.73;1.50;;;;;;;17.36;63.14;96866.22;2089448;28;20048;-72
2022/12/11 03:31:42;;;;;;;1.30;0.98;;;;;;;17.36;63.20;96863.53;2088587;28;20045;-72
2022/12/11 03:32:49;;;;;;;1.67;1.45;;;;;;;17.37;63.16;96867.84;2084185;28;20126;-72
2022/12/11 03:33:54;;;;;;;1.10;1.00;;;;;;;17.35;63.23;96864.56;2078375;28;20524;-73
2022/12/11 03:35:00;;;;;;;1.40;1.10;;;;;;;17.35;63.27;96860.03;2078290;28;20052;-72
2022/12/11 03:36:07;;;;;;;1.98;1.30;;;;;;;17.37;63.12;96867.84;2089266;28;20056;-72
2022/12/11 03:37:10;;;;;;;1.63;0.82;;;;;;;17.36;63.05;96864.34;2086267;28;20059;-72
2022/12/11 03:38:16;;;;;;;1.23;0.98;;;;;;;17.35;63.10;96868.06;2090919;28;20065;-72
2022/12/11 03:39:23;;;;;;;1.50;1.40;;;;;;;17.35;63.24;96864.56;2088309;28;20521;-72
2022/12/11 03:40:27;;;;;;;1.30;1.00;;;;;;;17.33;63.06;96872.06;2081025;28;20990;-72
2022/12/11 03:41:30;;;;;;;0.95;0.88;;;;;;;17.33;63.13;96869.38;2080731;28;20490;-73
2022/12/11 03:42:33;;;;;;;1.10;0.93;;;;;;;17.32;63.06;96863.19;2077344;28;20122;-72
2022/12/11 03:43:35;;;;;;;1.52;1.38;;;;;;;17.31;63.30;96869.59;2074776;28;20056;-72
2022/12/11 03:44:37;;;;;;;0.98;0.82;;;;;;;17.32;63.25;96865.06;2083781;28;20544;-72
2022/12/11 03:45:41;;;;;;;1.38;0.90;;;;;;;17.32;63.18;96865.84;2088066;28;20057;-72
2022/12/11 03:46:46;;;;;;;1.20;1.10;;;;;;;17.33;63.10;96872.06;2089180;28;20586;-72
2022/12/11 03:47:48;;;;;;;1.55;1.42;;;;;;;17.33;62.96;96869.38;2079930;28;20305;-72
2022/12/11 03:48:52;;;;;;;1.35;0.95;;;;;;;17.32;63.09;96868.53;2079276;28;20048;-72
2022/12/11 03:49:54;;;;;;;1.35;1.10;;;;;;;17.32;63.17;96867.72;2079145;28;20083;-72
2022/12/11 03:50:57;;;;;;;1.10;1.00;;;;;;;17.32;63.12;96873.09;2075915;28;20052;-72
2022/12/11 03:52:01;;;;;;;1.15;0.88;;;;;;;17.34;63.21;96876.34;2077398;28;20122;-72
2022/12/11 03:53:04;;;;;;;1.70;1.10;;;;;;;17.34;63.05;96871.00;2078589;28;20076;-72
2022/12/11 03:54:06;;;;;;;0.95;0.73;;;;;;;17.34;63.11;96876.34;2076932;28;20044;-72
2022/12/11 03:55:09;;;;;;;1.70;1.50;;;;;;;17.34;63.11;96865.63;2082400;28;20135;-72
2022/12/11 03:56:12;;;;;;;1.00;0.85;;;;;;;17.32;63.19;96865.06;2086414;28;20056;-73
2022/12/11 03:57:21;;;;;;;1.33;1.23;;;;;;;17.32;63.02;96867.72;2082360;28;20072;-72
2022/12/11 03:58:22;;;;;;;1.50;1.20;;;;;;;17.31;63.13;96879.50;2080881;28;20635;-72
2022/12/11 03:59:23;;;;;;;;;;;;;;;17.18;63.35;96873.34;2084318;28;20064;-73
2022/12/11 04:00:24;;;;;;;2.35;1.30;;;;;;;17.22;63.54;96876.41;2080121;28;19971;-72
2022/12/11 04:01:27;;;;;;;;;;;;;;;17.12;63.82;96882.34;2070902;28;20852;-72
2022/12/11 04:02:28;;;;;;;1.52;1.02;;;;;;;17.17;63.51;96870.94;2080929;28;19924;-72
2022/12/11 04:03:29;;;;;;;;;;;;;;;17.09;63.79;96882.00;2081654;28;20865;-72
2022/12/11 04:04:30;;;;;;;1.50;1.13;;;;;;;17.15;63.72;96879.19;2084564;28;19928;-72
2022/12/11 04:05:32;;;;;;;;;;;;;;;17.07;63.77;96871.50;2084082;28;20044;-73
2022/12/11 04:06:33;;;;;;;1.58;1.27;;;;;;;17.12;63.76;96874.31;2079181;28;19928;-72
2022/12/11 04:07:34;;;;;;;;;;;;;;;17.08;63.72;96873.16;2079079;28;20548;-72
2022/12/11 04:08:35;;;;;;;;;;;;;;;17.02;64.00;96865.25;2083917;28;21008;-72
2022/12/11 04:09:37;;;;;;;1.23;0.87;;;;;;;17.08;63.82;96873.16;2076221;28;19928;-72
2022/12/11 04:10:38;;;;;;;1.77;1.17;;;;;;;17.16;63.51;96864.75;2083303;28;20691;-72
2022/12/11 04:11:41;;;;;;;1.50;1.10;;;;;;;17.19;63.49;96868.84;2086005;28;20059;-72
2022/12/11 04:12:42;;;;;;;1.40;1.02;;;;;;;17.22;63.32;96867.50;2075394;28;20049;-72
2022/12/11 04:13:44;;;;;;;;;;;;;;;17.12;63.67;96868.13;2083980;28;20135;-73
2022/12/11 04:15:03;;;;;;;1.25;1.00;;;;;;;17.15;63.53;96868.47;2078302;28;19924;-72
2022/12/11 04:16:04;;;;;;;1.45;0.90;;;;;;;17.16;63.51;96867.44;2081070;28;20690;-72
2022/12/11 04:17:07;;;;;;;1.00;1.00;;;;;;;17.22;63.36;96872.88;2081428;28;20110;-73
2022/12/11 04:24:53;;;;;;;1.52;1.08;;;;;;;17.18;63.32;96859.16;2083233;28;20057;-72
2022/12/11 04:26:01;;;;;;;1.70;0.80;;;;;;;17.19;63.26;96863.47;2081124;28;20048;-72
2022/12/11 04:27:03;;;;;;;0.82;0.75;;;;;;;17.18;63.34;96859.97;2085899;28;20121;-72
2022/12/11 04:28:04;;;;;;;1.73;1.15;;;;;;;17.21;63.12;96856.00;2079588;28;20110;-72
2022/12/11 04:29:06;;;;;;;;;;;;;;;17.11;63.68;96855.81;2084539;28;20628;-72
2022/12/11 04:30:10;;;;;;;1.27;1.10;;;;;;;17.13;63.40;96854.53;2082272;28;20563;-72
2022/12/11 04:31:13;;;;;;;1.40;1.05;;;;;;;17.16;63.36;96854.03;2083361;28;20053;-72
2022/12/11 04:32:15;;;;;;;1.30;1.17;;;;;;;17.20;63.36;96859.72;2079574;28;20076;-72
2022/12/11 04:33:17;;;;;;;1.02;0.95;;;;;;;17.22;63.38;96862.16;2084611;28;20182;-72
2022/12/11 04:34:17;;;;;;;1.38;1.00;;;;;;;17.20;63.30;96849.03;2084866;28;20715;-73
2022/12/11 04:35:20;;;;;;;;;;;;;;;17.09;63.38;96855.22;2090208;28;20055;-72
2022/12/11 04:36:20;;;;;;;1.23;1.13;;;;;;;17.13;63.45;96854.53;2087421;28;19936;-72
2022/12/11 04:37:22;;;;;;;;;;;;;;;17.05;63.73;96862.94;2083004;28;20048;-72
2022/12/11 04:38:23;;;;;;;1.02;1.00;;;;;;;17.09;63.53;96858.72;2081108;28;20580;-73
2022/12/11 04:39:24;;;;;;;;;;;;;;;17.01;63.68;96856.41;2082541;28;20091;-72
2022/12/11 04:40:25;;;;;;;1.65;1.15;;;;;;;17.05;63.78;96854.06;2084960;28;19930;-72
2022/12/11 04:41:26;;;;;;;;;;;;;;;16.99;63.94;96850.44;2086286;28;20053;-72
2022/12/11 04:42:27;;;;;;;1.02;0.80;;;;;;;17.05;63.65;96854.91;2089005;28;20499;-73
2022/12/11 04:43:29;;;;;;;;;;;;;;;16.97;63.94;96853.38;2088489;28;20090;-73
2022/12/11 04:44:29;;;;;;;;;;;;;;;16.93;63.97;96854.09;2081718;28;20294;-72
2022/12/11 04:45:31;;;;;;;2.40;1.23;;;;;;;17.00;63.91;96844.06;2083358;28;19935;-73
2022/12/11 04:46:32;;;;;;;1.30;0.95;;;;;;;17.08;63.53;96840.22;2081966;28;21229;-72
2022/12/11 04:47:35;;;;;;;;;;;;;;;17.00;63.69;96844.06;2080588;28;20584;-72
2022/12/11 04:48:38;;;;;;;1.40;1.30;;;;;;;17.04;63.71;96849.75;2088204;28;19928;-73
2022/12/11 04:49:39;;;;;;;2.22;0.88;;;;;;;17.06;63.67;96847.66;2088633;28;20110;-72
2022/12/11 04:50:40;;;;;;;1.70;1.20;;;;;;;17.10;63.50;96852.28;2081312;28;20521;-73
2022/12/11 04:51:42;;;;;;;;;;;;;;;17.02;63.62;96852.69;2084853;28;20044;-73
2022/12/11 04:52:43;;;;;;;1.98;1.27;;;;;;;17.11;63.57;96850.44;2076042;28;19924;-72
2022/12/11 04:53:45;;;;;;;;;;;;;;;17.07;63.55;96852.78;2085685;28;20048;-72
2022/12/11 04:54:46;;;;;;;1.65;0.90;;;;;;;17.20;63.22;96855.19;2084894;28;19924;-72
2022/12/11 04:55:48;;;;;;;2.33;1.08;;;;;;;17.30;63.05;96853.75;2087894;28;20107;-72
2022/12/11 04:56:49;;;;;;;2.38;1.33;;;;;;;17.40;62.61;96849.41;2081484;28;20647;-72
2022/12/11 04:57:50;;;;;;;;;;;;;;;17.38;62.87;96848.84;2089416;28;20051;-72
2022/12/11 04:58:51;;;;;;;;;;;;;;;17.35;62.98;96851.97;2084192;28;19975;-72
2022/12/11 04:59:52;;;;;;;1.23;1.03;;;;;;;17.42;62.91;96841.13;2082003;28;19924;-72
2022/12/11 05:00:53;;;;;;;1.67;1.27;;;;;;;17.54;62.68;96847.25;2078060;28;20075;-72
2022/12/11 05:01:55;;;;;;;;;;;;;;;17.50;62.65;96851.47;2081492;28;20072;-72
2022/12/11 05:02:57;;;;;;;1.02;0.93;;;;;;;17.57;62.56;96844.09;2080192;28;20009;-73
2022/12/11 05:03:59;;;;;;;1.42;0.80;;;;;;;17.64;62.44;96854.69;2079545;28;22407;-72
2022/12/11 05:05:00;;;;;;;1.85;1.27;;;;;;;17.69;62.38;96857.47;2082577;28;20275;-72
2022/12/11 05:06:01;;;;;;;;;;;;;;;17.65;62.56;96858.97;2078539;28;20133;-72
2022/12/11 05:07:02;;;;;;;1.13;1.02;;;;;;;17.74;62.52;96864.75;2081912;28;19928;-72
2022/12/11 05:08:04;;;;;;;;;;;;;;;17.69;62.58;96862.81;2082486;28;20143;-73
2022/12/11 05:09:05;;;;;;;1.55;1.20;;;;;;;17.74;62.57;96864.75;2086944;28;19924;-72
2022/12/11 05:10:08;;;;;;;1.30;0.77;;;;;;;17.84;62.37;96865.78;2085799;28;20894;-72
2022/12/11 05:11:11;;;;;;;1.42;0.98;;;;;;;17.90;62.15;96858.66;2086527;28;20053;-72
2022/12/11 05:12:13;;;;;;;1.23;0.98;;;;;;;17.94;62.12;96858.97;2087243;28;20804;-72
2022/12/11 05:13:14;;;;;;;0.65;0.65;;;;;;;17.96;62.27;96863.03;2082755;28;20091;-72